createdAt,value
2019-03-29T00:04:51.059Z,12.13
2019-03-29T00:09:57.161Z,12.36
2019-03-29T00:15:05.249Z,12.57
2019-03-29T00:20:11.161Z,12.44
2019-03-29T00:25:16.736Z,12.35
2019-03-29T00:30:23.553Z,12.33
2019-03-29T00:35:30.833Z,12.27
2019-03-29T00:40:39.401Z,12.54
2019-03-29T00:45:45.167Z,12.93
2019-03-29T00:50:51.654Z,12.95
2019-03-29T00:55:57.514Z,12.85
2019-03-29T01:01:03.458Z,12.46
2019-03-29T01:06:09.027Z,12.79
2019-03-29T01:11:14.954Z,13.09
2019-03-29T01:16:20.712Z,12.94
2019-03-29T01:21:27.014Z,12.99
2019-03-29T01:26:34.517Z,13.29
2019-03-29T01:31:40.240Z,13.27
2019-03-29T01:36:46.575Z,13.22
2019-03-29T01:41:53.016Z,13.07
2019-03-29T01:46:58.830Z,13.08
2019-03-29T01:52:04.480Z,13.29
2019-03-29T01:57:10.282Z,13.26
2019-03-29T02:02:16.225Z,13.32
2019-03-29T02:07:21.858Z,13.17
2019-03-29T02:12:28.966Z,13.31
2019-03-29T02:17:34.855Z,13.03
2019-03-29T02:22:40.503Z,12.83
2019-03-29T02:27:46.311Z,12.27
2019-03-29T02:32:53.473Z,12.90
2019-03-29T02:38:00.562Z,12.88
2019-03-29T02:43:06.314Z,12.73
2019-03-29T02:48:14.095Z,12.54
2019-03-29T02:53:21.777Z,12.23
2019-03-29T02:58:27.699Z,12.19
2019-03-29T03:03:34.369Z,11.86
2019-03-29T03:08:40.601Z,11.72
2019-03-29T03:13:46.475Z,11.66
2019-03-29T03:18:52.456Z,11.81
2019-03-29T03:23:58.181Z,11.70
2019-03-29T03:29:05.190Z,11.69
2019-03-29T03:34:10.956Z,12.03
2019-03-29T03:39:30.644Z,12.05
2019-03-29T03:44:24.411Z,12.21
2019-03-29T03:49:30.384Z,12.25
2019-03-29T03:54:36.163Z,12.14
2019-03-29T03:59:45.322Z,12.17
2019-03-29T04:04:51.138Z,12.70
2019-03-29T04:09:58.478Z,12.78
2019-03-29T04:15:05.267Z,12.61
2019-03-29T04:20:11.485Z,12.81
2019-03-29T04:25:18.974Z,13.05
2019-03-29T04:30:24.842Z,13.04
2019-03-29T04:35:32.093Z,12.85
2019-03-29T04:40:38.045Z,12.46
2019-03-29T04:45:44.393Z,12.29
2019-03-29T04:50:50.043Z,12.71
2019-03-29T04:55:56.613Z,12.69
2019-03-29T05:01:02.189Z,12.58
2019-03-29T05:06:07.797Z,12.59
2019-03-29T05:11:13.985Z,12.49
2019-03-29T05:16:19.926Z,12.06
2019-03-29T05:21:26.397Z,12.45
2019-03-29T05:26:32.254Z,12.74
2019-03-29T05:31:39.290Z,12.67
2019-03-29T05:36:44.880Z,12.92
2019-03-29T05:41:50.829Z,12.96
2019-03-29T05:46:56.665Z,13.13
2019-03-29T05:52:02.568Z,13.32
2019-03-29T05:57:08.141Z,13.51
2019-03-29T06:02:13.799Z,12.50
2019-03-29T06:07:19.559Z,13.10
2019-03-29T06:12:26.774Z,13.03
2019-03-29T06:17:32.438Z,13.02
2019-03-29T06:22:38.599Z,12.61
2019-03-29T06:27:44.331Z,13.15
2019-03-29T06:32:50.095Z,13.42
2019-03-29T06:37:55.839Z,12.42
2019-03-29T06:43:01.448Z,12.65
2019-03-29T06:48:08.427Z,12.65
2019-03-29T06:53:14.961Z,13.06
2019-03-29T06:58:21.434Z,13.02
2019-03-29T07:03:27.014Z,12.66
2019-03-29T07:08:32.599Z,12.73
2019-03-29T07:13:39.127Z,13.48
2019-03-29T07:18:45.104Z,12.91
2019-03-29T07:23:51.113Z,12.64
2019-03-29T07:28:58.513Z,12.66
2019-03-29T07:34:04.479Z,12.75
2019-03-29T07:39:10.450Z,12.46
2019-03-29T07:44:16.100Z,13.01
2019-03-29T07:49:22.103Z,13.26
2019-03-29T07:54:27.785Z,12.94
2019-03-29T07:59:33.537Z,13.11
2019-03-29T08:04:39.629Z,13.66
2019-03-29T08:09:45.888Z,13.41
2019-03-29T08:14:51.832Z,13.01
2019-03-29T08:20:35.589Z,12.56
2019-03-29T08:25:06.764Z,12.64
2019-03-29T08:30:12.504Z,13.57
2019-03-29T08:35:18.673Z,13.86
2019-03-29T08:40:24.897Z,12.85
2019-03-29T08:45:30.954Z,13.34
2019-03-29T08:50:38.298Z,12.95
2019-03-29T08:55:45.927Z,13.09
2019-03-29T09:00:52.777Z,13.13
2019-03-29T09:05:58.828Z,12.84
2019-03-29T09:11:07.417Z,13.47
2019-03-29T09:16:11.988Z,13.01
2019-03-29T09:21:17.725Z,13.79
2019-03-29T09:26:23.973Z,13.88
2019-03-29T09:31:29.722Z,13.45
2019-03-29T09:36:35.626Z,13.76
2019-03-29T09:41:41.468Z,13.46
2019-03-29T09:46:47.250Z,13.67
2019-03-29T09:51:53.123Z,13.71
2019-03-29T09:56:59.192Z,13.18
2019-03-29T10:02:04.856Z,13.42
2019-03-29T10:07:10.893Z,14.29
2019-03-29T10:12:17.168Z,14.23
2019-03-29T10:17:22.723Z,13.63
2019-03-29T10:22:28.368Z,14.23
2019-03-29T10:27:34.205Z,14.83
2019-03-29T10:32:40.050Z,14.51
2019-03-29T10:37:47.014Z,15.13
2019-03-29T10:42:58.007Z,15.32
2019-03-29T10:48:01.487Z,15.16
2019-03-29T10:53:07.440Z,14.64
2019-03-29T10:58:13.531Z,15.09
2019-03-29T11:03:20.013Z,15.34
2019-03-29T11:08:25.753Z,15.31
2019-03-29T11:13:31.656Z,15.88
2019-03-29T11:18:37.254Z,15.61
2019-03-29T11:23:43.394Z,15.25
2019-03-29T11:28:50.576Z,14.73
2019-03-29T11:33:56.787Z,14.42
2019-03-29T11:39:02.538Z,15.35
2019-03-29T11:44:10.555Z,15.10
2019-03-29T11:49:17.243Z,15.49
2019-03-29T11:54:23.295Z,15.85
2019-03-29T11:59:29.868Z,15.35
2019-03-29T12:04:35.583Z,15.57
2019-03-29T12:09:41.193Z,15.08
2019-03-29T12:14:46.839Z,15.38
2019-03-29T12:19:52.517Z,15.07
2019-03-29T12:24:59.175Z,14.61
2019-03-29T12:30:08.657Z,15.03
2019-03-29T12:35:14.351Z,15.06
2019-03-29T12:40:21.537Z,15.74
2019-03-29T12:45:28.551Z,15.68
2019-03-29T12:50:34.713Z,15.88
2019-03-29T12:55:40.690Z,15.89
2019-03-29T13:00:46.963Z,15.84
2019-03-29T13:05:52.883Z,15.55
2019-03-29T13:10:59.118Z,15.36
2019-03-29T13:16:05.535Z,15.43
2019-03-29T13:21:11.256Z,15.68
2019-03-29T13:26:18.429Z,15.37
2019-03-29T13:31:24.859Z,15.35
2019-03-29T13:36:30.475Z,15.36
2019-03-29T13:41:36.793Z,15.41
2019-03-29T13:46:42.411Z,14.81
2019-03-29T13:51:49.411Z,15.21
2019-03-29T13:56:55.475Z,15.43
2019-03-29T14:02:01.345Z,15.50
2019-03-29T14:07:07.171Z,15.81
2019-03-29T14:12:15.005Z,15.73
2019-03-29T14:17:23.535Z,15.82
2019-03-29T14:22:29.929Z,15.68
2019-03-29T14:27:35.559Z,15.45
2019-03-29T14:32:42.649Z,15.23
2019-03-29T14:37:48.197Z,14.95
2019-03-29T14:42:54.895Z,15.08
2019-03-29T14:48:01.029Z,15.60
2019-03-29T14:53:07.338Z,15.78
2019-03-29T14:58:13.248Z,15.14
2019-03-29T15:03:19.034Z,15.57
2019-03-29T15:08:24.885Z,14.79
2019-03-29T15:13:30.577Z,15.35
2019-03-29T15:18:38.729Z,15.21
2019-03-29T15:23:44.721Z,14.76
2019-03-29T15:28:51.137Z,14.99
2019-03-29T15:33:57.595Z,15.26
2019-03-29T15:39:03.694Z,15.49
2019-03-29T15:44:10.757Z,15.48
2019-03-29T15:49:16.645Z,15.16
2019-03-29T15:54:22.339Z,15.16
2019-03-29T15:59:28.059Z,15.62
2019-03-29T16:04:33.862Z,15.04
2019-03-29T16:09:39.410Z,14.82
2019-03-29T16:14:45.477Z,14.82
2019-03-29T16:19:51.866Z,15.16
2019-03-29T16:24:59.137Z,15.26
2019-03-29T16:30:07.745Z,14.31
2019-03-29T16:35:13.496Z,14.63
2019-03-29T16:40:19.495Z,15.07
2019-03-29T16:45:25.204Z,15.34
2019-03-29T16:50:31.186Z,14.48
2019-03-29T16:55:36.952Z,14.63
2019-03-29T17:00:43.134Z,14.29
2019-03-29T17:05:49.291Z,14.47
2019-03-29T17:10:54.919Z,14.86
2019-03-29T17:16:02.313Z,15.05
2019-03-29T17:21:09.041Z,15.39
2019-03-29T17:26:15.744Z,15.42
2019-03-29T17:31:22.029Z,15.37
2019-03-29T17:36:28.025Z,15.19
2019-03-29T17:41:35.289Z,15.29
2019-03-29T17:46:41.697Z,15.08
2019-03-29T17:51:47.956Z,14.58
2019-03-29T17:56:53.588Z,15.11
2019-03-29T18:02:09.347Z,14.98
2019-03-29T18:07:08.312Z,15.08
2019-03-29T18:12:15.380Z,14.90
2019-03-29T18:17:21.000Z,14.74
2019-03-29T18:22:27.059Z,14.69
2019-03-29T18:27:35.525Z,14.60
2019-03-29T18:32:42.218Z,14.36
2019-03-29T18:37:47.820Z,14.56
2019-03-29T18:42:55.467Z,14.64
2019-03-29T18:48:01.578Z,14.59
2019-03-29T18:53:07.601Z,14.51
2019-03-29T18:58:13.248Z,14.57
2019-03-29T19:03:19.483Z,14.65
2019-03-29T19:08:27.102Z,14.66
2019-03-29T19:13:32.941Z,14.55
2019-03-29T19:18:38.729Z,14.44
2019-03-29T19:23:44.603Z,14.35
2019-03-29T19:28:50.819Z,14.18
2019-03-29T19:33:58.147Z,14.14
2019-03-29T19:39:06.568Z,14.04
2019-03-29T19:44:14.055Z,14.12
2019-03-29T19:49:21.385Z,13.89
2019-03-29T19:54:28.160Z,13.88
2019-03-29T19:59:34.876Z,13.96
2019-03-29T20:04:40.528Z,13.83
2019-03-29T20:09:48.257Z,13.72
2019-03-29T20:14:56.035Z,13.75
2019-03-29T20:20:05.555Z,13.59
2019-03-29T20:25:11.721Z,13.60
2019-03-29T20:30:20.074Z,13.44
2019-03-29T20:35:28.609Z,13.31
2019-03-29T20:40:36.204Z,13.24
2019-03-29T20:45:43.503Z,13.12
2019-03-29T20:50:49.594Z,13.12
2019-03-29T20:55:58.295Z,13.10
2019-03-29T21:01:03.426Z,13.02
2019-03-29T21:06:10.923Z,13.08
2019-03-29T21:11:17.192Z,12.95
2019-03-29T21:16:23.513Z,12.83
2019-03-29T21:21:30.407Z,12.52
2019-03-29T21:26:36.979Z,12.50
2019-03-29T21:31:44.075Z,12.23
2019-03-29T21:36:50.119Z,12.31
2019-03-29T21:41:57.325Z,12.20
2019-03-29T21:47:02.986Z,12.03
2019-03-29T21:52:09.660Z,12.02
2019-03-29T21:57:15.531Z,11.94
2019-03-29T22:03:28.585Z,12.02
2019-03-29T22:08:35.773Z,12.19
2019-03-29T22:13:41.353Z,11.83
2019-03-29T22:18:47.073Z,11.86
2019-03-29T22:23:52.795Z,11.77
2019-03-29T22:28:58.357Z,11.73
2019-03-29T22:34:05.341Z,11.76
2019-03-29T22:39:11.413Z,11.65
2019-03-29T22:44:18.628Z,11.67
2019-03-29T22:49:24.417Z,11.67
2019-03-29T22:54:29.989Z,11.61
2019-03-29T22:59:35.954Z,11.55
2019-03-29T23:04:41.892Z,11.45
2019-03-29T23:09:47.448Z,11.47
2019-03-29T23:14:53.969Z,11.42
2019-03-29T23:20:01.555Z,11.41
2019-03-29T23:25:07.745Z,11.32
2019-03-29T23:30:13.862Z,11.19
2019-03-29T23:35:19.742Z,11.02
2019-03-29T23:40:25.337Z,11.09
2019-03-29T23:45:30.962Z,10.99
2019-03-29T23:50:36.739Z,10.99
2019-03-29T23:55:42.846Z,10.93
